Time;durP1;ratioP1;P1;durP2;ratioP2;P2;SDS_P1;SDS_P2;PMS_P1;PMS_P2;Temp;Humidity;BMP_temperature;BMP_pressure;BME280_temperature;BME280_humidity;BME280_pressure;Samples;Min_cycle;Max_cycle;Signal;HPM_P1;HPM_P2
2023/11/17 00:00:05;;;;;;;;;43.60;36.40;;;;;12.92;100.00;97995.38;6137232;28;96943;-67
2023/11/17 00:03:11;;;;;;;;;44.20;38.00;;;;;12.95;100.00;97988.66;6145834;28;98532;-67
2023/11/17 00:06:14;;;;;;;;;40.60;34.80;;;;;12.98;100.00;97985.44;6165983;28;96322;-67
2023/11/17 00:09:17;;;;;;;;;43.00;35.25;;;;;12.97;100.00;97986.50;6167912;28;97161;-67
2023/11/17 00:12:20;;;;;;;;;46.40;38.00;;;;;13.00;100.00;97985.97;6153234;28;96409;-67
2023/11/17 00:15:25;;;;;;;;;45.50;38.25;;;;;12.99;100.00;97978.94;6151076;28;98836;-67
2023/11/17 00:18:28;;;;;;;;;42.00;36.00;;;;;12.97;100.00;97976.50;6149716;28;96761;-67
2023/11/17 00:21:31;;;;;;;;;40.20;35.00;;;;;12.96;100.00;97971.34;6135590;28;98601;-67
2023/11/17 00:24:34;;;;;;;;;40.00;34.50;;;;;12.94;100.00;97968.09;6163365;28;97146;-66
2023/11/17 00:27:37;;;;;;;;;42.00;35.00;;;;;12.96;100.00;97971.34;6149066;28;96998;-66
2023/11/17 00:30:42;;;;;;;;;44.25;37.25;;;;;12.93;100.00;97967.28;6155360;28;96294;-67
2023/11/17 00:33:45;;;;;;;;;43.60;36.00;;;;;12.88;100.00;97964.53;6143351;28;96387;-66
2023/11/17 00:36:48;;;;;;;;;45.00;36.00;;;;;12.82;100.00;97962.03;6146274;28;96587;-67
2023/11/17 00:39:52;;;;;;;;;40.33;34.33;;;;;12.83;100.00;97956.38;6122636;28;98432;-67
2023/11/17 00:42:55;;;;;;;;;46.67;38.00;;;;;12.80;100.00;97959.59;6132574;28;96616;-67
2023/11/17 00:46:00;;;;;;;;;39.60;35.00;;;;;12.73;100.00;97950.88;6166480;28;96397;-67
2023/11/17 00:49:04;;;;;;;;;43.00;35.00;;;;;12.80;100.00;97956.09;6127290;28;98705;-66
2023/11/17 00:52:07;;;;;;;;;45.00;36.00;;;;;12.75;100.00;97956.84;6164220;28;96610;-66
2023/11/17 00:55:13;;;;;;;;;43.00;36.00;;;;;12.68;100.00;97950.84;6166340;28;96559;-66
2023/11/17 00:58:16;;;;;;;;;40.80;35.20;;;;;12.72;100.00;97954.66;6149319;28;96533;-66
2023/11/17 01:01:21;;;;;;;;;42.60;35.00;;;;;12.75;100.00;97950.63;6151432;28;96480;-68
2023/11/17 01:04:24;;;;;;;;;41.20;35.00;;;;;12.71;100.00;97949.50;6136198;28;96950;-67
2023/11/17 01:07:29;;;;;;;;;40.20;35.00;;;;;12.71;100.00;97953.00;6165121;28;96578;-68
2023/11/17 01:10:34;;;;;;;;;41.80;35.60;;;;;12.70;100.00;97942.47;6148779;28;97280;-67
2023/11/17 01:13:37;;;;;;;;;44.00;36.00;;;;;12.66;100.00;97950.25;6130783;28;97021;-66
2023/11/17 01:16:41;;;;;;;;;43.00;35.00;;;;;12.60;100.00;97945.91;6164270;28;96863;-67
2023/11/17 01:19:46;;;;;;;;;37.80;33.00;;;;;12.59;100.00;97941.56;6149752;28;97203;-66
2023/11/17 01:22:49;;;;;;;;;38.50;33.00;;;;;12.62;100.00;97932.94;6130484;28;96917;-66
2023/11/17 01:25:52;;;;;;;;;37.50;32.00;;;;;12.65;100.00;97929.72;6165977;28;97360;-66
2023/11/17 01:28:55;;;;;;;;;34.33;32.00;;;;;12.65;100.00;97924.31;6148383;28;96736;-66
2023/11/17 01:32:00;;;;;;;;;34.20;30.00;;;;;12.68;100.00;97917.56;6147358;28;96392;-67
2023/11/17 01:35:04;;;;;;;;;36.80;32.40;;;;;12.67;100.00;97914.03;6146283;28;96441;-67
2023/11/17 01:38:08;;;;;;;;;31.20;30.20;;;;;12.70;100.00;97910.03;6164920;28;97649;-66
2023/11/17 01:41:11;;;;;;;;;33.00;30.00;;;;;12.71;100.00;97903.50;6167338;28;96625;-66
2023/11/17 01:44:14;;;;;;;;;35.40;31.40;;;;;12.74;100.00;97903.00;6165181;28;96400;-67
2023/11/17 01:47:20;;;;;;;;;31.00;28.50;;;;;12.74;100.00;97893.03;6163641;28;96377;-67
2023/11/17 01:50:23;;;;;;;;;31.00;29.00;;;;;12.74;100.00;97884.09;6130530;28;96703;-67
2023/11/17 01:53:27;;;;;;;;;31.00;28.00;;;;;12.73;100.00;97883.28;6166540;28;96173;-68
2023/11/17 01:56:31;;;;;;;;;29.60;28.60;;;;;12.66;100.00;97869.16;6130475;28;96817;-67
2023/11/17 01:59:34;;;;;;;;;35.60;30.00;;;;;12.67;100.00;97868.06;6148259;28;96480;-67
2023/11/17 02:02:39;;;;;;;;;29.60;27.00;;;;;12.73;100.00;97871.63;6143776;28;98425;-67
2023/11/17 02:05:43;;;;;;;;;29.60;26.60;;;;;12.72;100.00;97870.00;6144524;28;96703;-67
2023/11/17 02:08:58;;;;;;;;;28.50;26.00;;;;;12.73;100.00;97868.94;6144774;28;96354;-67
2023/11/17 02:12:14;;;;;;;;;28.50;26.00;;;;;12.67;100.00;97851.84;6162570;28;97083;-66
2023/11/17 02:15:21;;;;;;;;;29.60;27.20;;;;;12.75;100.00;97864.91;6146662;28;96771;-66
2023/11/17 02:18:30;;;;;;;;;32.80;29.40;;;;;12.77;100.00;97867.34;6112794;28;96888;-67
2023/11/17 02:21:37;;;;;;;;;28.40;27.40;;;;;12.80;100.00;97858.72;6164584;28;96580;-66
2023/11/17 02:24:45;;;;;;;;;25.50;25.00;;;;;12.76;100.00;97847.56;6127175;28;96917;-66
2023/11/17 02:27:59;;;;;;;;;28.75;25.75;;;;;12.75;100.00;97851.38;6146884;28;97510;-66
2023/11/17 02:31:15;;;;;;;;;24.40;23.40;;;;;12.74;100.00;97855.16;6122119;28;96672;-67
2023/11/17 02:34:24;;;;;;;;;26.50;25.50;;;;;12.75;100.00;97850.56;6154628;28;96932;-66
2023/11/17 02:37:28;;;;;;;;;28.00;26.00;;;;;12.76;100.00;97849.47;6143683;28;96866;-71
2023/11/17 02:40:32;;;;;;;;;25.20;24.00;;;;;12.74;100.00;97844.34;6139034;28;96996;-71
2023/11/17 02:43:37;;;;;;;;;26.40;24.40;;;;;12.75;100.00;97845.97;6120393;28;98977;-72
2023/11/17 02:46:44;;;;;;;;;23.00;22.60;;;;;12.77;100.00;97846.50;6135354;28;96536;-71
2023/11/17 02:49:52;;;;;;;;;24.80;23.20;;;;;12.77;100.00;97833.00;6138293;28;98424;-71
2023/11/17 02:53:06;;;;;;;;;28.00;26.00;;;;;12.79;100.00;97825.44;6130386;28;96931;-71
2023/11/17 02:56:09;;;;;;;;;25.00;24.00;;;;;12.80;100.00;97820.84;6123108;28;96846;-71
2023/11/17 02:59:13;;;;;;;;;28.40;26.40;;;;;12.82;100.00;97816.78;6143438;28;96374;-71
2023/11/17 03:02:19;;;;;;;;;23.00;22.60;;;;;12.84;100.00;97828.19;6161345;28;99472;-70
2023/11/17 03:05:22;;;;;;;;;31.00;28.00;;;;;12.83;100.00;97823.84;6159836;28;97439;-72
2023/11/17 03:08:27;;;;;;;;;26.80;25.80;;;;;12.85;100.00;97820.88;6147040;28;97580;-72
2023/11/17 03:11:30;;;;;;;;;30.80;29.00;;;;;12.85;100.00;97823.59;6132402;28;98151;-72
2023/11/17 03:14:33;;;;;;;;;27.60;26.20;;;;;12.76;100.00;97814.31;6142252;28;97822;-72
2023/11/17 03:17:38;;;;;;;;;30.00;29.00;;;;;12.71;100.00;97815.09;6159290;28;97592;-71
2023/11/17 03:20:44;;;;;;;;;33.00;28.00;;;;;12.73;100.00;97818.38;6135600;28;98804;-72
2023/11/17 03:23:50;;;;;;;;;28.00;27.20;;;;;12.72;100.00;97816.72;6149496;28;96431;-72
2023/11/17 03:26:55;;;;;;;;;30.00;27.00;;;;;12.73;100.00;97818.38;6156311;28;97367;-72
2023/11/17 03:29:58;;;;;;;;;29.00;27.00;;;;;12.73;100.00;97815.66;6160092;28;97008;-70
2023/11/17 03:33:03;;;;;;;;;27.00;25.60;;;;;12.75;100.00;97816.22;6158578;28;96787;-71
2023/11/17 03:36:07;;;;;;;;;32.50;29.25;;;;;12.77;100.00;97814.06;6145184;28;97591;-71
2023/11/17 03:39:12;;;;;;;;;27.00;24.40;;;;;12.75;100.00;97810.81;6165518;28;96570;-70
2023/11/17 03:42:18;;;;;;;;;27.00;25.60;;;;;12.77;100.00;97813.25;6148510;28;96452;-72
2023/11/17 03:45:21;;;;;;;;;28.40;26.80;;;;;12.80;100.00;97815.44;6143138;28;97064;-66
2023/11/17 03:48:26;;;;;;;;;25.80;25.00;;;;;12.78;100.00;97810.28;6126483;28;96745;-66
2023/11/17 03:51:29;;;;;;;;;27.00;25.60;;;;;12.77;100.00;97816.75;6143961;28;96887;-68
2023/11/17 03:54:32;;;;;;;;;27.60;25.60;;;;;12.74;100.00;97811.06;6143949;28;96401;-66
2023/11/17 03:57:36;;;;;;;;;28.40;25.00;;;;;12.74;100.00;97806.47;6160386;28;96993;-67
2023/11/17 04:00:41;;;;;;;;;25.00;23.00;;;;;12.73;100.00;97806.72;6160477;28;97833;-66
2023/11/17 04:03:46;;;;;;;;;28.40;26.00;;;;;12.73;100.00;97795.91;6171250;28;96785;-66
2023/11/17 04:06:50;;;;;;;;;25.00;24.60;;;;;12.76;100.00;97792.69;6157257;28;96444;-67
2023/11/17 04:09:54;;;;;;;;;25.60;24.00;;;;;12.72;100.00;97789.69;6160063;28;96581;-66
2023/11/17 04:12:59;;;;;;;;;27.60;25.00;;;;;12.72;100.00;97789.69;6161861;28;96301;-67
2023/11/17 04:16:02;;;;;;;;;23.80;23.40;;;;;12.73;100.00;97801.31;6147527;28;96851;-66
2023/11/17 04:19:08;;;;;;;;;24.50;23.50;;;;;12.74;100.00;97802.97;6147550;28;96672;-67
2023/11/17 04:22:12;;;;;;;;;24.00;21.50;;;;;12.71;100.00;97796.16;6150086;28;96892;-66
2023/11/17 04:25:16;;;;;;;;;25.50;24.00;;;;;12.73;100.00;97798.63;6168759;28;96267;-67
2023/11/17 04:28:19;;;;;;;;;22.00;21.00;;;;;12.75;100.00;97794.59;6144048;28;96502;-67
2023/11/17 04:31:23;;;;;;;;;26.80;24.80;;;;;12.78;100.00;97793.25;6129236;28;97535;-66
2023/11/17 04:34:28;;;;;;;;;25.67;23.33;;;;;12.77;100.00;97792.41;6162947;28;96711;-67
2023/11/17 04:37:31;;;;;;;;;28.20;25.60;;;;;12.79;100.00;97787.56;6147818;28;96441;-67
2023/11/17 04:40:34;;;;;;;;;26.00;22.00;;;;;12.82;100.00;97787.03;6162680;28;96747;-67
2023/11/17 04:43:38;;;;;;;;;23.00;22.00;;;;;12.84;100.00;97781.38;6149133;28;96410;-67
2023/11/17 04:46:41;;;;;;;;;25.00;24.33;;;;;12.70;100.00;97764.81;6158880;28;98433;-66
2023/11/17 04:49:46;;;;;;;;;25.60;22.20;;;;;12.84;100.00;97784.91;6129701;28;97005;-66
2023/11/17 04:52:49;;;;;;;;;25.40;24.00;;;;;12.87;100.00;97789.78;6159840;28;96854;-67
2023/11/17 04:55:52;;;;;;;;;37.20;32.80;;;;;12.87;100.00;97788.97;6170910;28;96626;-66
2023/11/17 04:58:56;;;;;;;;;24.20;22.20;;;;;12.87;100.00;97784.38;6169547;28;96607;-67
2023/11/17 05:01:59;;;;;;;;;23.00;22.40;;;;;12.88;100.00;97786.00;6169649;28;96744;-67
2023/11/17 05:05:05;;;;;;;;;22.00;20.50;;;;;12.85;100.00;97783.81;6173612;28;97533;-66
2023/11/17 05:08:08;;;;;;;;;21.40;20.40;;;;;12.90;100.00;97788.44;6190961;28;96841;-66
2023/11/17 05:11:11;;;;;;;;;19.50;19.50;;;;;12.89;100.00;97782.22;6190120;28;96308;-65
2023/11/17 05:14:14;;;;;;;;;20.00;19.00;;;;;12.84;100.00;97778.66;6172084;28;96262;-66
2023/11/17 05:17:18;;;;;;;;;18.25;16.75;;;;;12.90;100.00;97783.03;6167062;28;96987;-66
2023/11/17 05:20:24;;;;;;;;;22.00;20.25;;;;;12.90;100.00;97783.81;6188052;28;96795;-67
2023/11/17 05:23:27;;;;;;;;;21.00;19.60;;;;;12.91;100.00;97779.22;6183404;28;96503;-66
2023/11/17 05:26:30;;;;;;;;;18.60;16.60;;;;;12.94;100.00;97787.66;6171728;28;96853;-66
2023/11/17 05:29:33;;;;;;;;;16.60;16.00;;;;;12.96;100.00;97784.66;6186931;28;96511;-66
2023/11/17 05:32:37;;;;;;;;;19.00;16.60;;;;;12.94;100.00;97787.66;6169572;28;96630;-66
2023/11/17 05:35:42;;;;;;;;;20.20;19.00;;;;;12.93;100.00;97790.63;6162674;28;98493;-68
2023/11/17 05:38:48;;;;;;;;;19.33;17.00;;;;;12.95;100.00;97791.19;6171833;28;99078;-67
2023/11/17 05:41:51;;;;;;;;;19.00;17.80;;;;;12.95;100.00;97791.19;6145817;28;96692;-66
2023/11/17 05:44:55;;;;;;;;;16.00;15.40;;;;;12.93;100.00;97790.63;6175737;28;96343;-66
2023/11/17 05:47:58;;;;;;;;;17.60;16.00;;;;;12.97;100.00;97797.13;6179849;28;96344;-66
2023/11/17 05:51:05;;;;;;;;;17.00;15.00;;;;;12.85;100.00;97781.09;6177518;28;96851;-66
2023/11/17 05:54:09;;;;;;;;;18.00;16.00;;;;;12.99;100.00;97803.09;6156981;28;98622;-67
2023/11/17 05:57:12;;;;;;;;;18.60;18.40;;;;;12.93;100.00;97802.25;6154004;28;96525;-66
2023/11/17 06:00:18;;;;;;;;;17.20;16.80;;;;;13.00;100.00;97810.09;6156218;28;96412;-66
2023/11/17 06:03:22;;;;;;;;;18.67;17.67;;;;;13.00;100.00;97810.94;6147298;28;96897;-66
2023/11/17 06:06:27;;;;;;;;;16.00;14.40;;;;;13.02;100.00;97807.97;6169027;28;96955;-72
2023/11/17 06:09:30;;;;;;;;;14.50;13.00;;;;;13.03;100.00;97810.41;6162064;28;96450;-72
2023/11/17 06:12:34;;;;;;;;;17.00;16.00;;;;;13.09;100.00;97811.25;6127487;28;98395;-72
2023/11/17 06:15:37;;;;;;;;;15.80;15.00;;;;;13.10;100.00;97809.34;6151972;28;96996;-71
2023/11/17 06:18:40;;;;;;;;;17.00;17.00;;;;;13.09;100.00;97815.84;6141069;28;96842;-70
2023/11/17 06:21:47;;;;;;;;;15.00;14.00;;;;;13.12;100.00;97815.34;6143491;28;97212;-71
2023/11/17 06:24:50;;;;;;;;;13.25;12.25;;;;;13.13;100.00;97815.09;6153674;28;96520;-71
2023/11/17 06:27:54;;;;;;;;;14.00;13.40;;;;;13.19;100.00;97816.75;6159081;28;96576;-71
2023/11/17 06:30:57;;;;;;;;;14.60;14.40;;;;;13.20;100.00;97814.84;6160699;28;96893;-71
2023/11/17 06:34:00;;;;;;;;;14.67;13.67;;;;;13.20;100.00;97826.47;6142797;28;96938;-72
2023/11/17 06:37:06;;;;;;;;;15.00;13.40;;;;;13.19;100.00;97826.75;6124096;28;98022;-72
2023/11/17 06:40:10;;;;;;;;;14.80;13.20;;;;;13.16;100.00;97817.25;6145269;28;97658;-72
2023/11/17 06:43:14;;;;;;;;;14.00;13.00;;;;;13.22;100.00;97831.63;6145211;28;96882;-72
2023/11/17 06:46:17;;;;;;;;;14.00;13.60;;;;;13.24;100.00;97832.19;6162337;28;96959;-72
2023/11/17 06:49:22;;;;;;;;;14.00;13.00;;;;;13.25;100.00;97833.81;6145106;28;96586;-72
2023/11/17 06:52:27;;;;;;;;;16.25;14.50;;;;;13.26;100.00;97836.25;6160266;28;96302;-71
2023/11/17 06:55:30;;;;;;;;;13.00;13.00;;;;;13.29;100.00;97838.41;6128111;28;100229;-72
2023/11/17 06:58:34;;;;;;;;;13.60;12.00;;;;;13.30;100.00;97842.75;6144589;28;99150;-72
2023/11/17 07:01:37;;;;;;;;;15.80;14.00;;;;;13.35;100.00;97841.97;6128537;28;96822;-72
2023/11/17 07:04:40;;;;;;;;;13.00;12.00;;;;;13.32;100.00;97846.03;6162086;28;97119;-71
2023/11/17 07:07:45;;;;;;;;;14.00;13.50;;;;;13.34;100.00;97851.19;6162529;28;96522;-72
2023/11/17 07:10:49;;;;;;;;;13.00;13.00;;;;;13.36;100.00;97855.25;6144738;28;97118;-72
2023/11/17 07:13:52;;;;;;;;;14.00;13.00;;;;;13.37;100.00;97853.34;6145623;28;96450;-71
2023/11/17 07:16:55;;;;;;;;;12.60;12.00;;;;;13.35;100.00;97858.22;6174987;28;96921;-65
2023/11/17 07:19:58;;;;;;;;;13.00;13.00;;;;;13.36;100.00;97860.66;6179754;28;96349;-66
2023/11/17 07:23:03;;;;;;;;;16.20;15.40;;;;;13.34;100.00;97862.00;6162660;28;96935;-65
2023/11/17 07:26:17;;;;;;;;;14.60;14.00;;;;;13.33;100.00;97861.19;6179929;28;96652;-65
2023/11/17 07:29:21;;;;;;;;;16.25;15.25;;;;;13.34;100.00;97870.13;6180201;28;96458;-66
2023/11/17 07:32:24;;;;;;;;;14.25;13.00;;;;;13.33;100.00;97871.22;6145579;28;98769;-66
2023/11/17 07:35:28;;;;;;;;;10.00;9.60;;;;;13.34;100.00;97878.25;6179049;28;96338;-66
2023/11/17 07:38:32;;;;;;;;;14.20;13.00;;;;;13.36;100.00;97885.03;6163044;28;96368;-66
2023/11/17 07:41:35;;;;;;;;;12.00;12.00;;;;;13.25;100.00;97871.69;6180296;28;96312;-66
2023/11/17 07:44:39;;;;;;;;;12.20;11.60;;;;;13.36;100.00;97876.91;6179286;28;96176;-66
2023/11/17 07:47:43;;;;;;;;;12.80;11.80;;;;;13.40;100.00;97890.72;6162010;28;96371;-66
2023/11/17 07:50:46;;;;;;;;;10.75;10.00;;;;;13.44;100.00;97878.28;6179335;28;96361;-66
2023/11/17 07:53:51;;;;;;;;;11.00;11.00;;;;;13.44;100.00;97889.91;6159834;28;96744;-66
2023/11/17 07:56:55;;;;;;;;;13.00;12.20;;;;;13.46;100.00;97892.38;6178090;28;96335;-66
2023/11/17 07:59:59;;;;;;;;;13.00;12.00;;;;;13.50;100.00;97898.06;6180554;28;96399;-66
2023/11/17 08:03:02;;;;;;;;;10.00;10.00;;;;;13.49;100.00;97883.72;6164438;28;96746;-67
2023/11/17 08:06:06;;;;;;;;;12.75;11.00;;;;;13.49;100.00;97901.88;6181604;28;96318;-67
2023/11/17 08:09:12;;;;;;;;;10.00;10.00;;;;;13.45;100.00;97909.69;6178088;28;96340;-67
2023/11/17 08:12:15;;;;;;;;;11.00;11.00;;;;;13.44;100.00;97906.16;6179974;28;96389;-66
2023/11/17 08:15:18;;;;;;;;;13.00;11.50;;;;;13.48;100.00;97908.38;6179414;28;96336;-66
2023/11/17 08:18:21;;;;;;;;;13.40;12.40;;;;;13.51;100.00;97910.53;6146116;28;97157;-66
2023/11/17 08:21:29;;;;;;;;;12.33;11.33;;;;;13.48;100.00;97916.50;6162331;28;96883;-66
2023/11/17 08:24:33;;;;;;;;;11.00;10.00;;;;;13.50;100.00;97914.31;6182798;28;96333;-66
2023/11/17 08:27:36;;;;;;;;;9.00;9.00;;;;;13.54;100.00;97916.22;6183781;28;96277;-65
2023/11/17 08:30:41;;;;;;;;;10.00;9.60;;;;;13.57;100.00;97925.72;6183712;28;96365;-65
2023/11/17 08:33:55;;;;;;;;;11.00;10.00;;;;;13.57;100.00;97928.44;6158811;28;96294;-66
2023/11/17 08:36:58;;;;;;;;;8.00;7.00;;;;;13.54;100.00;97931.66;6163612;28;96687;-66
2023/11/17 08:40:08;;;;;;;;;9.25;9.00;;;;;13.64;100.00;97937.13;6184615;28;96435;-66
2023/11/17 08:43:13;;;;;;;;;10.60;9.00;;;;;13.38;100.00;97926.19;6167109;28;97343;-65
2023/11/17 08:46:17;;;;;;;;;9.00;8.00;;;;;13.55;100.00;97946.84;6186020;28;97053;-66
2023/11/17 08:49:21;;;;;;;;;9.20;8.20;;;;;13.55;100.00;97950.34;6166982;28;96790;-66
2023/11/17 08:52:25;;;;;;;;;9.00;9.00;;;;;13.58;100.00;97954.44;6167648;28;98450;-66
2023/11/17 08:55:29;;;;;;;;;11.60;9.60;;;;;13.56;100.00;97954.69;6168232;28;98460;-66
2023/11/17 08:58:33;;;;;;;;;8.00;7.00;;;;;13.56;100.00;97959.28;6170040;28;96399;-65
2023/11/17 09:01:36;;;;;;;;;11.00;11.00;;;;;13.58;100.00;97965.28;6186636;28;96393;-66
2023/11/17 09:04:40;;;;;;;;;8.80;8.20;;;;;13.59;100.00;97969.59;6168866;28;96304;-67
2023/11/17 09:07:44;;;;;;;;;7.40;7.40;;;;;13.56;100.00;97957.41;6150004;28;96374;-67
2023/11/17 09:10:49;;;;;;;;;9.00;8.67;;;;;13.53;100.00;97965.25;6161998;28;96312;-66
2023/11/17 09:13:53;;;;;;;;;5.00;5.00;;;;;13.65;100.00;97982.91;6160972;28;97002;-66
2023/11/17 09:16:56;;;;;;;;;5.00;5.00;;;;;13.67;100.00;97974.53;6159116;28;96751;-66
2023/11/17 09:20:00;;;;;;;;;4.60;4.60;;;;;13.63;100.00;97978.84;6144373;28;99025;-66
2023/11/17 09:23:04;;;;;;;;;5.00;4.00;;;;;13.57;100.00;97980.72;6161519;28;96370;-65
2023/11/17 09:26:08;;;;;;;;;5.00;4.25;;;;;13.61;100.00;97981.00;6148364;28;97284;-66
2023/11/17 09:29:11;;;;;;;;;5.00;4.60;;;;;13.57;100.00;97982.59;6163056;28;98947;-66
2023/11/17 09:32:14;;;;;;;;;5.80;5.00;;;;;13.49;100.00;97985.81;6182593;28;96607;-65
2023/11/17 09:35:21;;;;;;;;;2.20;2.00;;;;;13.40;100.00;97980.88;6177926;28;96386;-66
2023/11/17 09:38:24;;;;;;;;;5.00;5.00;;;;;13.40;100.00;97990.88;6155078;28;96253;-66
2023/11/17 09:41:44;;;;;;;;;4.25;4.00;;;;;13.48;100.00;97982.28;6155812;28;97232;-66
2023/11/17 09:44:48;;;;;;;;;4.00;4.00;;;;;13.47;100.00;97987.94;6157464;28;96611;-67
2023/11/17 09:47:53;;;;;;;;;3.00;3.00;;;;;13.43;100.00;97956.00;6157578;28;98880;-66
2023/11/17 09:51:02;;;;;;;;;3.00;3.00;;;;;13.64;100.00;97983.97;6152006;28;96779;-65
2023/11/17 09:54:07;;;;;;;;;4.00;4.00;;;;;13.67;100.00;97988.88;6184826;28;96437;-66
2023/11/17 09:57:14;;;;;;;;;4.25;4.00;;;;;13.69;100.00;97983.19;6183788;28;96370;-66
2023/11/17 10:00:20;;;;;;;;;3.40;3.00;;;;;13.74;100.00;97985.91;6179797;28;97381;-67
2023/11/17 10:03:26;;;;;;;;;5.00;5.00;;;;;13.71;100.00;97975.63;6166164;28;96350;-66
2023/11/17 10:06:33;;;;;;;;;4.00;4.00;;;;;13.78;100.00;97985.13;6166302;28;96672;-66
2023/11/17 10:09:39;;;;;;;;;3.00;3.00;;;;;13.69;100.00;97989.41;6167283;28;99186;-66
2023/11/17 10:12:47;;;;;;;;;4.00;4.00;;;;;13.70;100.00;97993.75;6184327;28;96375;-66
2023/11/17 10:15:51;;;;;;;;;4.00;4.00;;;;;13.65;100.00;97988.31;6167879;28;96798;-66
2023/11/17 10:18:59;;;;;;;;;3.40;3.40;;;;;13.62;100.00;97993.47;6184994;28;96221;-66
2023/11/17 10:22:06;;;;;;;;;4.00;4.00;;;;;13.60;100.00;97993.72;6167684;28;96752;-66
2023/11/17 10:25:13;;;;;;;;;4.40;4.40;;;;;13.55;100.00;97998.28;6167266;28;97102;-66
2023/11/17 10:28:19;;;;;;;;;4.00;4.00;;;;;13.49;100.00;97993.94;6165852;28;96775;-66
2023/11/17 10:31:23;;;;;;;;;5.25;5.00;;;;;13.45;100.00;97991.72;6151370;28;96833;-67
2023/11/17 10:34:27;;;;;;;;;7.00;7.00;;;;;13.40;100.00;97999.81;6149687;28;98445;-65
2023/11/17 10:37:34;;;;;;;;;6.80;6.00;;;;;13.49;100.00;97996.66;6150110;28;98976;-66
2023/11/17 10:40:38;;;;;;;;;9.00;8.00;;;;;13.60;100.00;98004.53;6182624;28;96315;-66
2023/11/17 10:43:51;;;;;;;;;5.20;5.00;;;;;13.67;100.00;98007.03;6183152;28;96620;-66
2023/11/17 10:46:55;;;;;;;;;7.00;7.00;;;;;13.64;100.00;98002.13;6153339;28;98510;-68
2023/11/17 10:50:08;;;;;;;;;8.60;7.00;;;;;13.56;100.00;98002.63;6130986;28;96831;-68
2023/11/17 10:53:19;;;;;;;;;7.60;7.60;;;;;13.64;100.00;98013.78;6164611;28;96395;-67
2023/11/17 10:56:27;;;;;;;;;7.00;7.00;;;;;13.65;100.00;98007.28;6164823;28;96332;-67
2023/11/17 10:59:35;;;;;;;;;7.00;7.00;;;;;13.64;100.00;98012.94;6123664;28;98634;-66
2023/11/17 11:02:55;;;;;;;;;6.00;6.00;;;;;13.64;100.00;98021.91;6139883;28;96872;-67
2023/11/17 11:05:59;;;;;;;;;6.00;5.00;;;;;13.56;100.00;98027.81;6106106;28;98400;-67
2023/11/17 11:09:05;;;;;;;;;6.00;5.40;;;;;13.45;100.00;98026.94;6153762;28;96438;-67
2023/11/17 11:12:13;;;;;;;;;5.40;5.40;;;;;13.39;100.00;98029.84;6164810;28;97054;-67
2023/11/17 11:15:19;;;;;;;;;5.40;5.40;;;;;13.42;100.00;98032.06;6148076;28;96972;-67
2023/11/17 11:18:23;;;;;;;;;6.20;5.80;;;;;13.40;100.00;98035.03;6165096;28;97047;-67
2023/11/17 11:21:29;;;;;;;;;7.25;6.25;;;;;13.46;100.00;98044.00;6165380;28;96412;-67
2023/11/17 11:24:35;;;;;;;;;8.60;8.60;;;;;13.37;100.00;98035.56;6147633;28;96974;-67
2023/11/17 11:27:43;;;;;;;;;5.00;5.00;;;;;13.26;100.00;98030.31;6165625;28;96496;-66
2023/11/17 11:30:50;;;;;;;;;7.00;6.00;;;;;13.27;100.00;98042.78;6164264;28;96725;-67
2023/11/17 11:33:54;;;;;;;;;7.00;7.00;;;;;13.28;100.00;98047.13;6130567;28;97203;-67
2023/11/17 11:36:57;;;;;;;;;5.00;5.00;;;;;13.23;100.00;98045.19;6165656;28;96379;-67
2023/11/17 11:40:02;;;;;;;;;6.00;5.00;;;;;13.13;100.00;98036.19;6149311;28;96378;-66
2023/11/17 11:43:06;;;;;;;;;6.50;6.50;;;;;13.11;100.00;98040.97;6148622;28;98570;-66
2023/11/17 11:46:10;;;;;;;;;6.60;6.60;;;;;13.13;100.00;98049.69;6149083;28;96373;-66
2023/11/17 11:49:16;;;;;;;;;8.00;8.00;;;;;13.09;100.00;98056.69;6167155;28;96365;-66
2023/11/17 11:52:23;;;;;;;;;7.00;7.00;;;;;13.08;100.00;98049.63;6149475;28;96288;-66
2023/11/17 11:55:27;;;;;;;;;8.00;7.00;;;;;13.10;100.00;98051.00;6150215;28;96384;-65
2023/11/17 11:58:30;;;;;;;;;9.00;8.00;;;;;13.12;100.00;98059.72;6153792;28;96339;-66
2023/11/17 12:01:36;;;;;;;;;6.75;6.00;;;;;13.16;100.00;98049.19;6155540;28;96332;-66
2023/11/17 12:04:39;;;;;;;;;7.75;7.00;;;;;13.12;100.00;98058.88;6178970;28;96220;-66
2023/11/17 12:07:43;;;;;;;;;8.60;8.00;;;;;13.20;100.00;98061.94;6165426;28;99015;-66
2023/11/17 12:10:46;;;;;;;;;9.00;8.00;;;;;13.21;100.00;98065.47;6164388;28;96554;-66
2023/11/17 12:13:52;;;;;;;;;8.00;7.00;;;;;13.24;100.00;98070.38;6165661;28;98621;-66
2023/11/17 12:16:58;;;;;;;;;8.00;7.60;;;;;13.25;100.00;98070.09;6164397;28;96375;-67
2023/11/17 12:20:19;;;;;;;;;6.00;6.00;;;;;13.08;100.00;98069.38;6154034;28;96863;-66
2023/11/17 12:23:49;;;;;;;;;6.00;5.00;;;;;13.16;100.00;98079.78;6172469;28;96782;-66
2023/11/17 12:26:55;;;;;;;;;8.00;7.00;;;;;13.18;100.00;98093.88;6183843;28;96379;-66
2023/11/17 12:30:01;;;;;;;;;8.00;8.00;;;;;13.13;100.00;98079.47;6165801;28;96459;-65
2023/11/17 12:33:07;;;;;;;;;8.60;7.60;;;;;13.24;100.00;98094.72;6181489;28;96541;-66
2023/11/17 12:36:15;;;;;;;;;11.00;10.00;;;;;13.21;100.00;98103.34;6164156;28;96773;-66
2023/11/17 12:39:20;;;;;;;;;11.60;10.60;;;;;13.15;100.00;98102.47;6149645;28;96867;-66
2023/11/17 12:42:24;;;;;;;;;12.00;11.00;;;;;13.09;100.00;98108.91;6148877;28;96726;-66
2023/11/17 12:45:28;;;;;;;;;13.00;13.00;;;;;13.05;100.00;98107.78;6167143;28;98804;-66
2023/11/17 12:48:33;;;;;;;;;12.00;11.00;;;;;13.06;100.00;98106.69;6166244;28;96745;-66
2023/11/17 12:51:36;;;;;;;;;11.60;11.40;;;;;13.05;100.00;98102.34;6183843;28;96349;-66
2023/11/17 12:54:39;;;;;;;;;13.50;12.50;;;;;13.04;100.00;98116.97;6182063;28;96373;-66
2023/11/17 12:57:42;;;;;;;;;15.00;13.00;;;;;13.00;100.00;98111.25;6182886;28;96220;-65
2023/11/17 13:00:48;;;;;;;;;14.00;13.00;;;;;12.95;100.00;98111.19;6167303;28;96868;-66
2023/11/17 13:03:55;;;;;;;;;15.00;14.00;;;;;13.03;100.00;98123.47;6162684;28;96416;-66
2023/11/17 13:07:01;;;;;;;;;14.75;13.25;;;;;12.95;100.00;98119.31;6170563;28;96286;-67
2023/11/17 13:10:05;;;;;;;;;13.00;12.00;;;;;12.98;100.00;98140.47;6159683;28;96353;-67
2023/11/17 13:13:08;;;;;;;;;17.00;16.00;;;;;12.87;100.00;98127.91;6148560;28;96696;-67
2023/11/17 13:16:14;;;;;;;;;22.50;21.00;;;;;12.90;100.00;98146.31;6163117;28;96195;-67
2023/11/17 13:19:19;;;;;;;;;18.40;17.40;;;;;12.89;100.00;98141.19;6155312;28;96406;-67
2023/11/17 13:22:24;;;;;;;;;17.40;17.00;;;;;12.93;100.00;98143.13;6166253;28;97129;-67
2023/11/17 13:25:27;;;;;;;;;15.00;15.00;;;;;12.81;100.00;98144.31;6163905;28;96285;-67
2023/11/17 13:28:30;;;;;;;;;13.75;13.75;;;;;12.70;100.00;98142.59;6164308;28;96984;-67
2023/11/17 13:31:35;;;;;;;;;13.50;12.00;;;;;12.67;100.00;98145.78;6146250;28;98484;-67
2023/11/17 13:34:39;;;;;;;;;12.00;11.00;;;;;12.58;100.00;98153.53;6160496;28;96738;-67
2023/11/17 13:37:43;;;;;;;;;13.00;12.00;;;;;12.64;100.00;98149.81;6164811;28;96893;-68
2023/11/17 13:40:48;;;;;;;;;15.60;13.60;;;;;12.68;100.00;98166.34;6164295;28;96504;-68
2023/11/17 13:43:51;;;;;;;;;17.20;16.40;;;;;12.62;100.00;98173.59;6143074;28;96186;-68
2023/11/17 13:46:57;;;;;;;;;15.20;14.20;;;;;12.67;100.00;98175.53;6165213;28;96948;-67
2023/11/17 13:50:14;;;;;;;;;13.60;12.60;;;;;12.55;100.00;98170.25;6147387;28;99125;-67
2023/11/17 13:53:18;;;;;;;;;15.40;14.40;;;;;12.68;100.00;98187.97;6147367;28;98468;-67
2023/11/17 13:56:24;;;;;;;;;12.20;11.60;;;;;12.68;100.00;98193.41;6166305;28;96344;-67
2023/11/17 13:59:29;;;;;;;;;11.25;11.00;;;;;12.56;100.00;98183.50;6165347;28;96345;-68
2023/11/17 14:02:32;;;;;;;;;13.40;12.00;;;;;12.61;100.00;98198.19;6128778;28;97631;-67
2023/11/17 14:05:37;;;;;;;;;10.00;9.00;;;;;12.57;100.00;98208.66;6161558;28;97458;-67